createdAt,value
2022-11-26T00:01:15.565Z,18.88
2022-11-26T00:03:42.101Z,18.88
2022-11-26T04:08:05.026Z,19.01
2022-11-26T04:10:31.391Z,19.00
2022-11-26T04:12:57.775Z,18.93
2022-11-26T04:15:24.151Z,18.85
2022-11-26T04:17:50.518Z,18.92
2022-11-26T04:20:16.922Z,18.98
2022-11-26T04:22:43.300Z,18.88
2022-11-26T04:25:09.670Z,18.82
2022-11-26T04:27:36.042Z,18.88
2022-11-26T04:30:02.429Z,18.90
2022-11-26T04:32:28.821Z,18.78
2022-11-26T04:34:55.191Z,18.81
2022-11-26T04:37:21.589Z,18.80
2022-11-26T04:39:47.956Z,18.83
2022-11-26T04:42:14.349Z,18.89
2022-11-26T04:44:40.812Z,18.97
2022-11-26T04:47:07.285Z,18.94
2022-11-26T04:49:33.655Z,18.94
2022-11-26T04:52:00.226Z,18.92
2022-11-26T04:54:26.629Z,18.96
2022-11-26T04:56:53.017Z,18.96
2022-11-26T04:59:19.383Z,18.95
2022-11-26T05:01:45.840Z,18.91
2022-11-26T05:04:12.269Z,18.82
2022-11-26T05:06:38.655Z,18.86
2022-11-26T05:09:05.054Z,18.96
2022-11-26T05:11:31.426Z,18.90
2022-11-26T05:13:57.798Z,18.84
2022-11-26T05:16:24.218Z,18.81
2022-11-26T05:18:50.597Z,18.88
2022-11-26T05:21:16.985Z,18.85
2022-11-26T05:23:43.359Z,18.90
2022-11-26T05:26:09.719Z,18.95
2022-11-26T05:28:36.079Z,18.96
2022-11-26T05:31:02.442Z,18.82
2022-11-26T05:33:28.822Z,18.87
2022-11-26T05:35:55.189Z,18.89
2022-11-26T05:38:21.568Z,18.87
2022-11-26T05:40:47.953Z,18.83
2022-11-26T05:43:14.342Z,18.91
2022-11-26T05:45:40.760Z,18.87
2022-11-26T05:48:07.196Z,18.94
2022-11-26T05:50:33.562Z,18.88
2022-11-26T05:52:59.934Z,18.93
2022-11-26T05:55:26.327Z,18.97
2022-11-26T05:57:52.713Z,19.02
2022-11-26T06:00:19.089Z,18.92
2022-11-26T06:02:45.537Z,19.05
2022-11-26T06:05:11.980Z,18.98
2022-11-26T06:07:43.267Z,18.92
2022-11-26T06:10:11.187Z,18.87
2022-11-26T06:12:37.549Z,18.97
2022-11-26T06:15:03.923Z,18.98
2022-11-26T06:17:30.300Z,18.98
2022-11-26T06:19:56.677Z,18.95
2022-11-26T06:22:23.064Z,18.91
2022-11-26T06:24:49.449Z,19.00
2022-11-26T06:27:15.829Z,19.02
2022-11-26T06:29:42.213Z,18.95
2022-11-26T06:32:08.592Z,18.98
2022-11-26T06:34:34.968Z,18.95
2022-11-26T06:37:01.326Z,18.93
2022-11-26T06:39:27.701Z,18.94
2022-11-26T06:41:54.066Z,18.90
2022-11-26T06:44:20.443Z,19.02
2022-11-26T06:46:46.819Z,19.01
2022-11-26T06:49:13.192Z,19.02
2022-11-26T06:51:39.569Z,18.91
2022-11-26T06:54:05.925Z,18.93
2022-11-26T06:56:32.278Z,18.98
2022-11-26T06:58:58.654Z,19.05
2022-11-26T07:01:25.069Z,19.03
2022-11-26T07:03:51.490Z,19.05
2022-11-26T07:06:17.873Z,18.99
2022-11-26T07:08:44.250Z,18.98
2022-11-26T07:11:10.718Z,18.91
2022-11-26T07:13:37.074Z,18.95
2022-11-26T07:16:03.470Z,18.95
2022-11-26T07:18:29.890Z,18.91
2022-11-26T07:20:56.268Z,18.90
2022-11-26T07:23:22.623Z,18.86
2022-11-26T07:25:48.994Z,18.92
2022-11-26T07:28:15.357Z,18.92
2022-11-26T07:30:41.730Z,18.99
2022-11-26T07:33:08.110Z,18.92
2022-11-26T07:35:34.462Z,19.00
2022-11-26T07:38:00.860Z,19.03
2022-11-26T07:40:27.238Z,19.04
2022-11-26T07:42:53.621Z,19.04
2022-11-26T07:45:20.001Z,19.09
2022-11-26T07:47:46.375Z,19.12
2022-11-26T07:50:12.768Z,19.11
2022-11-26T07:52:39.149Z,19.07
2022-11-26T07:55:09.564Z,19.09
2022-11-26T07:57:38.751Z,19.11
2022-11-26T08:00:05.131Z,19.12
2022-11-26T08:02:31.613Z,19.14
2022-11-26T08:04:58.030Z,19.15
2022-11-26T08:07:28.976Z,19.16
2022-11-26T08:09:55.882Z,19.16
2022-11-26T08:12:22.234Z,19.16
2022-11-26T08:14:48.617Z,19.15
2022-11-26T08:17:14.993Z,19.17
2022-11-26T08:19:41.378Z,19.17
2022-11-26T08:22:07.769Z,19.22
2022-11-26T08:24:34.148Z,19.18
2022-11-26T08:27:00.522Z,19.19
2022-11-26T08:29:26.890Z,19.13
2022-11-26T08:31:53.307Z,19.13
2022-11-26T08:34:19.693Z,19.03
2022-11-26T08:36:46.084Z,19.02
2022-11-26T08:39:12.447Z,19.05
2022-11-26T08:41:38.827Z,19.05
2022-11-26T08:44:07.125Z,19.18
2022-11-26T08:46:34.091Z,19.11
2022-11-26T08:49:00.536Z,19.11
2022-11-26T08:51:26.905Z,19.02
2022-11-26T08:53:53.282Z,19.07
2022-11-26T08:56:19.650Z,19.03
2022-11-26T08:58:46.006Z,19.05
2022-11-26T09:01:12.417Z,19.00
2022-11-26T09:03:38.818Z,19.07
2022-11-26T09:06:05.177Z,19.11
2022-11-26T09:08:31.558Z,19.13
2022-11-26T09:10:57.920Z,19.11
2022-11-26T09:13:24.294Z,19.17
2022-11-26T09:15:50.667Z,19.17
2022-11-26T09:18:17.105Z,19.07
2022-11-26T09:20:43.476Z,19.06
2022-11-26T09:23:09.851Z,19.05
2022-11-26T09:25:36.226Z,19.02
2022-11-26T09:28:02.600Z,19.05
2022-11-26T09:30:28.970Z,19.09
2022-11-26T09:32:55.455Z,19.08
2022-11-26T09:35:21.896Z,19.12
2022-11-26T09:37:51.545Z,19.26
2022-11-26T09:40:18.134Z,19.29
2022-11-26T09:42:44.511Z,19.27
2022-11-26T09:45:10.883Z,19.24
2022-11-26T09:47:37.263Z,19.27
2022-11-26T09:50:03.679Z,19.29
2022-11-26T09:52:30.042Z,19.30
2022-11-26T09:54:56.417Z,19.28
2022-11-26T09:57:22.805Z,19.23
2022-11-26T09:59:49.169Z,19.23
2022-11-26T10:02:15.604Z,19.33
2022-11-26T10:04:42.058Z,19.32
2022-11-26T10:07:08.461Z,19.34
2022-11-26T10:09:34.869Z,19.34
2022-11-26T10:12:01.246Z,19.34
2022-11-26T10:14:27.606Z,19.36
2022-11-26T10:16:53.991Z,19.34
2022-11-26T10:19:20.386Z,19.37
2022-11-26T10:22:01.983Z,19.36
2022-11-26T10:24:28.381Z,19.33
2022-11-26T10:26:54.763Z,19.40
2022-11-26T10:29:21.151Z,19.36
2022-11-26T10:31:47.652Z,19.37
2022-11-26T10:34:14.094Z,19.30
2022-11-26T10:36:40.475Z,19.33
2022-11-26T10:39:06.845Z,19.33
2022-11-26T10:41:33.229Z,19.35
2022-11-26T10:43:59.611Z,19.34
2022-11-26T10:46:26.042Z,19.35
2022-11-26T10:48:52.448Z,19.37
2022-11-26T10:51:23.717Z,19.38
2022-11-26T10:53:52.659Z,19.34
2022-11-26T10:56:19.071Z,19.36
2022-11-26T10:58:45.485Z,19.33
2022-11-26T11:01:11.885Z,19.31
2022-11-26T11:04:06.839Z,19.28
2022-11-26T11:06:24.678Z,19.25
2022-11-26T11:08:51.047Z,19.27
2022-11-26T11:11:17.418Z,19.34
2022-11-26T11:13:43.837Z,19.38
2022-11-26T11:16:10.254Z,19.38
2022-11-26T11:18:36.634Z,19.34
2022-11-26T11:21:03.012Z,19.36
2022-11-26T11:23:46.133Z,19.34
2022-11-26T11:26:15.768Z,19.36
2022-11-26T11:28:42.155Z,19.38
2022-11-26T11:31:08.577Z,19.36
2022-11-26T11:33:34.959Z,19.35
2022-11-26T11:36:01.335Z,19.38
2022-11-26T11:38:27.723Z,19.37
2022-11-26T11:40:54.094Z,19.33
2022-11-26T11:43:20.470Z,19.35
2022-11-26T11:45:52.747Z,19.35
2022-11-26T11:48:19.598Z,19.33
2022-11-26T11:50:45.998Z,19.34
2022-11-26T11:53:12.387Z,19.34
2022-11-26T11:55:38.769Z,19.38
2022-11-26T11:58:05.142Z,19.39
2022-11-26T12:00:31.543Z,19.38
2022-11-26T12:02:57.948Z,19.33
2022-11-26T12:05:24.386Z,19.39
2022-11-26T12:07:50.793Z,19.39
2022-11-26T12:10:17.204Z,19.33
2022-11-26T12:12:43.610Z,19.37
2022-11-26T12:15:10.018Z,19.39
2022-11-26T12:17:36.392Z,19.38
2022-11-26T12:20:02.781Z,19.40
2022-11-26T12:22:29.166Z,19.39
2022-11-26T12:24:55.551Z,19.40
2022-11-26T12:27:22.034Z,19.36
2022-11-26T12:29:48.422Z,19.31
2022-11-26T12:32:14.828Z,19.31
2022-11-26T12:34:41.506Z,19.33
2022-11-26T12:37:08.070Z,19.34
2022-11-26T12:39:34.438Z,19.34
2022-11-26T12:42:00.815Z,19.33
2022-11-26T12:44:27.188Z,19.32
2022-11-26T12:46:53.582Z,19.35
2022-11-26T12:49:19.959Z,19.34
2022-11-26T12:51:46.358Z,19.37
2022-11-26T12:54:12.743Z,19.36
2022-11-26T12:56:39.118Z,19.33
2022-11-26T12:59:05.529Z,19.34
2022-11-26T13:01:31.997Z,19.37
2022-11-26T13:04:21.424Z,19.37
2022-11-26T13:06:44.759Z,19.30
2022-11-26T13:09:11.123Z,19.34
2022-11-26T13:11:37.511Z,19.38
2022-11-26T13:14:03.886Z,19.40
2022-11-26T13:16:30.343Z,19.38
2022-11-26T13:18:56.748Z,19.43
2022-11-26T13:21:23.127Z,19.39
2022-11-26T13:23:49.512Z,19.46
2022-11-26T13:26:15.879Z,19.42
2022-11-26T13:28:42.267Z,19.41
2022-11-26T13:31:08.746Z,19.37
2022-11-26T13:33:35.144Z,19.37
2022-11-26T13:36:01.526Z,19.39
2022-11-26T13:38:27.918Z,19.36
2022-11-26T13:40:58.549Z,19.36
2022-11-26T13:43:25.382Z,19.32
2022-11-26T13:45:51.869Z,19.31
2022-11-26T13:48:18.302Z,19.34
2022-11-26T13:50:44.681Z,19.34
2022-11-26T13:53:11.079Z,19.37
2022-11-26T13:55:37.451Z,19.34
2022-11-26T13:58:03.833Z,19.33
2022-11-26T14:00:30.210Z,19.34
2022-11-26T14:02:56.575Z,19.34
2022-11-26T14:05:22.963Z,19.37
2022-11-26T14:07:49.391Z,19.37
2022-11-26T14:10:15.783Z,19.34
2022-11-26T14:12:42.168Z,19.31
2022-11-26T14:15:08.561Z,19.28
2022-11-26T14:17:35.362Z,19.47
2022-11-26T14:20:01.774Z,19.67
2022-11-26T14:22:28.166Z,19.66
2022-11-26T14:24:54.558Z,19.65
2022-11-26T14:27:20.932Z,19.67
2022-11-26T14:29:47.298Z,19.70
2022-11-26T14:32:13.685Z,19.80
2022-11-26T14:34:40.134Z,19.73
2022-11-26T14:37:06.623Z,19.79
2022-11-26T14:39:32.990Z,19.77
2022-11-26T14:42:05.718Z,19.72
2022-11-26T14:44:32.577Z,19.75
2022-11-26T14:46:59.014Z,19.83
2022-11-26T14:49:25.399Z,19.85
2022-11-26T14:51:51.801Z,19.93
2022-11-26T14:54:18.184Z,19.93
2022-11-26T14:56:46.517Z,19.82
2022-11-26T14:59:13.006Z,19.83
2022-11-26T15:01:39.388Z,19.85
2022-11-26T15:04:05.804Z,19.77
2022-11-26T15:06:32.210Z,19.70
2022-11-26T15:08:58.594Z,19.82
2022-11-26T15:11:24.967Z,19.82
2022-11-26T15:13:51.349Z,19.68
2022-11-26T15:16:17.797Z,19.63
2022-11-26T15:18:44.171Z,19.67
2022-11-26T15:21:10.551Z,19.66
2022-11-26T15:23:36.949Z,19.69
2022-11-26T15:26:03.323Z,19.66
2022-11-26T15:28:29.704Z,19.67
2022-11-26T15:30:56.176Z,19.60
2022-11-26T15:33:22.678Z,19.61
2022-11-26T15:35:49.077Z,19.76
2022-11-26T15:38:15.480Z,19.74
2022-11-26T15:40:41.887Z,19.60
2022-11-26T15:43:08.269Z,19.69
2022-11-26T15:45:34.774Z,19.62
2022-11-26T15:48:01.345Z,19.66
2022-11-26T15:50:27.754Z,19.62
2022-11-26T15:52:54.131Z,19.62
2022-11-26T15:55:20.926Z,19.69
2022-11-26T15:57:47.411Z,19.62
2022-11-26T16:00:13.782Z,19.68
2022-11-26T16:02:40.239Z,19.67
2022-11-26T16:05:06.652Z,19.66
2022-11-26T16:07:33.109Z,19.61
2022-11-26T16:09:59.537Z,19.62
2022-11-26T16:12:25.930Z,19.54
2022-11-26T16:14:52.339Z,19.63
2022-11-26T16:17:18.758Z,19.51
2022-11-26T16:19:45.148Z,19.56
2022-11-26T16:22:11.542Z,19.57
2022-11-26T16:24:38.273Z,19.62
2022-11-26T16:27:04.935Z,19.60
2022-11-26T16:29:31.343Z,19.61
2022-11-26T16:31:57.705Z,19.58
2022-11-26T16:34:24.082Z,19.56
2022-11-26T16:36:50.458Z,19.63
2022-11-26T16:39:16.937Z,19.58
2022-11-26T16:41:43.306Z,19.62
2022-11-26T16:44:09.685Z,19.61
2022-11-26T16:46:36.134Z,19.62
2022-11-26T16:49:02.565Z,19.57
2022-11-26T16:51:28.947Z,19.57
2022-11-26T16:53:55.331Z,19.55
2022-11-26T16:56:21.784Z,19.48
2022-11-26T16:58:48.195Z,19.46
2022-11-26T17:01:14.566Z,19.39
2022-11-26T17:03:41.014Z,19.42
2022-11-26T17:06:07.420Z,19.41
2022-11-26T17:08:33.782Z,19.37
2022-11-26T17:11:00.185Z,19.34
2022-11-26T17:13:26.573Z,19.30
2022-11-26T17:15:52.938Z,19.29
2022-11-26T17:18:19.306Z,19.26
2022-11-26T17:20:45.771Z,19.29
2022-11-26T17:23:12.135Z,19.23
2022-11-26T17:25:38.518Z,19.18
2022-11-26T17:28:04.916Z,19.21
2022-11-26T17:30:31.359Z,19.17
2022-11-26T17:32:57.787Z,19.20
2022-11-26T17:35:24.145Z,19.19
2022-11-26T17:37:50.563Z,19.16
2022-11-26T17:40:16.953Z,19.15
2022-11-26T17:42:43.340Z,19.18
2022-11-26T17:45:09.713Z,19.15
2022-11-26T17:47:36.094Z,19.08
2022-11-26T17:50:02.477Z,19.08
2022-11-26T17:52:28.884Z,19.10
2022-11-26T17:54:55.257Z,19.08
2022-11-26T17:57:21.637Z,19.06
2022-11-26T17:59:48.055Z,19.04
2022-11-26T18:02:14.486Z,19.07
2022-11-26T18:04:40.911Z,19.04
2022-11-26T18:07:07.311Z,19.09
2022-11-26T18:09:33.706Z,19.04
2022-11-26T18:12:00.099Z,19.10
2022-11-26T18:14:26.507Z,19.05
2022-11-26T18:16:52.939Z,19.09
2022-11-26T18:19:19.342Z,19.04
2022-11-26T18:21:45.741Z,19.07
2022-11-26T18:24:12.108Z,19.06
2022-11-26T18:26:38.488Z,19.04
2022-11-26T18:29:04.890Z,19.05
2022-11-26T18:31:35.303Z,19.07
2022-11-26T18:34:04.438Z,19.05
2022-11-26T18:36:30.825Z,19.01
2022-11-26T18:38:57.215Z,19.04
2022-11-26T18:41:23.599Z,19.03
2022-11-26T18:43:49.990Z,18.97
2022-11-26T18:46:16.422Z,19.01
2022-11-26T18:48:42.831Z,18.95
2022-11-26T18:51:09.192Z,18.97
2022-11-26T18:53:35.559Z,18.96
2022-11-26T18:56:01.950Z,18.99
2022-11-26T18:58:28.334Z,18.95
2022-11-26T19:00:54.773Z,18.99
2022-11-26T19:03:21.176Z,19.00
2022-11-26T19:05:47.581Z,18.98
2022-11-26T19:08:13.950Z,18.99
2022-11-26T19:10:40.341Z,19.00
2022-11-26T19:13:06.746Z,18.99
2022-11-26T19:15:33.119Z,19.02
2022-11-26T19:17:59.495Z,19.01
2022-11-26T19:20:25.896Z,19.00
2022-11-26T19:22:52.298Z,18.96
2022-11-26T19:25:18.683Z,18.95
2022-11-26T19:27:45.051Z,18.96
2022-11-26T19:30:11.430Z,18.96
2022-11-26T19:32:37.800Z,18.97
2022-11-26T19:35:06.028Z,18.99
2022-11-26T19:37:32.728Z,18.99
2022-11-26T19:39:59.116Z,18.93
2022-11-26T19:42:25.478Z,18.92
2022-11-26T19:44:51.873Z,18.93
2022-11-26T19:47:18.247Z,19.01
2022-11-26T19:49:44.611Z,18.97
2022-11-26T19:52:10.994Z,18.94
2022-11-26T19:54:37.390Z,19.00
2022-11-26T19:57:03.791Z,18.99
2022-11-26T19:59:30.154Z,18.96
2022-11-26T20:01:56.571Z,18.99
2022-11-26T20:04:22.990Z,18.95
2022-11-26T20:06:49.376Z,18.97
2022-11-26T20:09:15.739Z,19.01
2022-11-26T20:11:42.104Z,18.99
2022-11-26T20:14:08.502Z,18.99
2022-11-26T20:16:34.933Z,19.03
2022-11-26T20:19:01.393Z,18.97
2022-11-26T20:21:27.769Z,19.01
2022-11-26T20:23:54.154Z,19.02
2022-11-26T20:26:20.519Z,18.98
2022-11-26T20:28:46.916Z,18.97
2022-11-26T20:31:13.332Z,18.95
2022-11-26T20:33:39.763Z,18.97
2022-11-26T20:36:06.166Z,19.02
2022-11-26T20:38:32.540Z,19.00
2022-11-26T20:40:58.911Z,19.02
2022-11-26T20:43:25.294Z,19.02
2022-11-26T20:45:51.804Z,19.08
2022-11-26T20:48:18.196Z,19.07
2022-11-26T20:50:44.574Z,19.07
2022-11-26T20:53:10.961Z,19.04
2022-11-26T20:55:37.346Z,19.00
2022-11-26T20:58:03.724Z,19.04
2022-11-26T21:00:30.094Z,19.00
2022-11-26T21:02:56.569Z,19.06
2022-11-26T21:05:22.979Z,19.08
2022-11-26T21:07:49.388Z,19.04
2022-11-26T21:10:15.848Z,19.00
2022-11-26T21:12:42.245Z,19.05
2022-11-26T21:15:08.614Z,19.06
2022-11-26T21:17:35.108Z,19.05
2022-11-26T21:20:01.513Z,19.05
2022-11-26T21:22:27.902Z,19.08
2022-11-26T21:24:54.296Z,19.03
2022-11-26T21:27:20.663Z,19.00
2022-11-26T21:29:47.033Z,18.98
2022-11-26T21:32:13.427Z,19.00
2022-11-26T21:34:39.801Z,18.99
2022-11-26T21:37:06.190Z,19.03
2022-11-26T21:39:32.561Z,19.03
2022-11-26T21:41:58.933Z,19.03
2022-11-26T21:44:25.314Z,19.04
2022-11-26T21:46:51.709Z,19.04
2022-11-26T21:49:18.105Z,19.06
2022-11-26T21:51:44.492Z,19.02
2022-11-26T21:54:10.867Z,19.05
2022-11-26T21:56:37.263Z,19.06
2022-11-26T21:59:03.667Z,19.07
2022-11-26T22:01:30.121Z,19.07
2022-11-26T22:03:56.681Z,19.07
2022-11-26T22:06:23.274Z,19.08
2022-11-26T22:08:49.926Z,19.10
2022-11-26T22:11:16.303Z,19.10
2022-11-26T22:13:42.687Z,19.11
2022-11-26T22:16:09.173Z,19.12
2022-11-26T22:18:35.598Z,19.13
2022-11-26T22:21:01.967Z,19.12
2022-11-26T22:23:28.342Z,19.12
2022-11-26T22:25:54.721Z,19.14
2022-11-26T22:28:23.557Z,19.13
2022-11-26T22:30:53.423Z,19.13
2022-11-26T22:33:19.839Z,19.10
2022-11-26T22:35:46.206Z,19.13
2022-11-26T22:38:12.597Z,19.11
2022-11-26T22:40:38.966Z,19.12
2022-11-26T22:43:05.342Z,19.09
2022-11-26T22:45:31.746Z,19.15
2022-11-26T22:47:58.178Z,19.13
2022-11-26T22:50:24.565Z,19.15
2022-11-26T22:52:50.927Z,19.13
2022-11-26T22:55:17.306Z,19.15
2022-11-26T22:57:43.713Z,19.15
2022-11-26T23:00:10.101Z,19.14
2022-11-26T23:02:36.542Z,19.14
2022-11-26T23:05:02.961Z,19.16
2022-11-26T23:07:29.503Z,19.16
2022-11-26T23:09:55.913Z,19.17
2022-11-26T23:12:22.298Z,19.14
2022-11-26T23:14:48.674Z,19.23
2022-11-26T23:17:15.052Z,19.23
2022-11-26T23:19:41.691Z,19.22
2022-11-26T23:22:08.324Z,19.24
2022-11-26T23:24:34.692Z,19.23
2022-11-26T23:27:01.071Z,19.19
2022-11-26T23:29:27.436Z,19.19
2022-11-26T23:31:53.890Z,19.21
2022-11-26T23:34:20.358Z,19.24
2022-11-26T23:36:46.731Z,19.26
2022-11-26T23:39:13.100Z,19.20
2022-11-26T23:41:39.477Z,19.23
2022-11-26T23:44:05.852Z,19.19
2022-11-26T23:46:32.334Z,19.20
2022-11-26T23:48:58.774Z,19.28
2022-11-26T23:51:25.201Z,19.25
2022-11-26T23:53:51.584Z,19.28
2022-11-26T23:56:17.951Z,19.20
2022-11-26T23:58:44.335Z,19.20
